Impacts METAR Board
IDs:

KPDX - Portland Intl Arpt, OR, US

Updated at: 1200 UTC 27 Feb 2021
Potential Impact None Slight Moderate High
Time 27/00Z 27/01Z 27/02Z 27/03Z 27/04Z 27/05Z 27/06Z 27/07Z 27/08Z 27/09Z 27/10Z 27/11Z 27/12Z
Temp45 44 43 43 42 42 41 41 41 42 42 42 40
Dewpt37 36 35 34 35 36 37 35 34 35 34 33 34
Altim30.13 30.12 30.12 30.13 30.11 30.12 30.13 30.11 30.11 30.12 30.13 30.14 30.15
VIS10 10 10 10 10 5 10 10 10 10 10 10 10
CIG100 85 -- 65 75 24 26 65 75 36 36 60 30
CoverBKNBKNSCTBKNBKNOVCOVCOVCOVCOVCOVCOVCOVC
FltCatVFRVFRVFRVFRVFRMVFRMVFRVFRVFRVFRVFRVFRMVFR
WX----------RA-RA------------
WDir2802602602702403002500240240270250270
WSpd12 15 10 15 12 4 4 3 8 11 8 7 6
WGst-- -- -- -- -- -- -- -- -- -- -- -- --
Raw hourly METARs
KPDX 262353Z 28012KT 10SM SCT044 SCT050 BKN100 07/03 A3013 RMK AO2 RAE15 SLP201 P0000 60002 T00720028 10100 20067 58003
KPDX 270053Z 26015KT 10SM FEW033 SCT065 BKN085 07/02 A3012 RMK AO2 RAB26E42 SLP199 P0000 T00670022
KPDX 270153Z 26010KT 10SM FEW045 SCT085 06/02 A3012 RMK AO2 SLP198 T00610017
KPDX 270253Z 27015KT 10SM FEW033 SCT045 BKN065 06/01 A3013 RMK AO2 RAB37E51 SLP201 P0000 60000 T00610011 55000
KPDX 270353Z 24012KT 10SM BKN075 BKN090 06/02 A3011 RMK AO2 RAB11E24 SLP196 P0000 T00560017
KPDX 270453Z 30004KT 5SM RA OVC024 06/02 A3012 RMK AO2 RAB12 SLP198 P0005 T00560022
KPDX 270553Z 25004KT 10SM -RA BKN026 OVC033 05/03 A3013 RMK AO2 SLP200 P0001 60006 T00500028 10078 20050 55000
KPDX 270700Z VRB03KT 10SM SCT024 SCT038 OVC065 05/02 A3011 RMK AO2 RAE0655 P0000 T00500017
KPDX 270753Z 24008KT 10SM FEW041 OVC075 05/01 A3011 RMK AO2 RAE0655 SLP194 P0000 T00500011 401000050
KPDX 270853Z 24011KT 10SM FEW024 BKN036 OVC075 06/02 A3012 RMK AO2 RAB20E50 SLP199 P0001 60003 T00560017 55002
KPDX 270953Z 27008KT 10SM BKN036 OVC060 06/01 A3013 RMK AO2 RAB12E23 SLP200 P0000 T00560011
KPDX 271053Z 25007KT 10SM FEW039 BKN060 OVC080 06/01 A3014 RMK AO2 SLP204 T00560006
KPDX 271153Z 27006KT 10SM BKN030 BKN035 OVC070 04/01 A3015 RMK AO2 SLP210 60003 70017 T00440011 10061 20044 53012



Page loaded:  12:59 UTC  |   04:59 AM Pacific  |   05:59 AM Mountain  |   06:59 AM Central  |   07:59 AM Eastern

 

ADVISORIES

FORECASTS

FORECASTS

OBSERVATIONS

USER TOOLS

ABOUT US